Detall de PIREP

Printer-friendly versionPDF version

[2013/07/03 10:21:00]
Flight IATA:CT2105
Pilot Number:042
Company ICAO:CAT
Aircraft Type:A320/E
PAX:18
Departing Airport: LEBB
Destination Airport: LEVC
Alternate Airport:LEPA
Online: VATSIM
Route:PPN UM601 MARIO POSSY UN862 MLA UN860 SAURA
Flight Level:F270
No Slew and time accel
No pause
Crash detect
Detect pilot in Cockpit between each 30 and 45 minutes
10:21 Zero fuel Weight: 72667 Lbs, Fuel Weight: 22669 Lbs
10:21 VATSIM:LEBB 031000Z 33012KT 300V360 9999 BKN025 21/18 Q1021 NOSIG
10:21 VATSIM:LEVC 031000Z 08006KT 020V120 CAVOK 29/17 Q1017 NOSIG
10:22 VOICE CATALONIAN
10:34 Parking Brakes off
10:38 Take-off
10:38 Take off Weight: 94952 Lbs
10:38 Wind: 222º @ 023 Knots Heading: 292º
10:38 POS N43º 18´ 14´´ W002º 55´ 04´´
10:38 Gear Up: 168 Knots
10:38 Flaps:2 at 168 Knots
10:38 Flaps:0 at 163 Knots
10:53 Wind:315º@049 Knots Heading: 135º Ground Speed: 408 Knots Altitude 24363 ft
10:55 TOC
10:55 Fuel Weight: 20273 Lb
10:55 TOD
10:55 Fuel Weight: 20269 Lb
10:55 TOC
10:55 Fuel Weight: 20246 Lb
11:08 Wind:308º@047 Knots Heading: 186º Ground Speed: 467 Knots Altitude 27178 ft
11:13 TOD
11:13 Fuel Weight: 18695 Lb
11:13 TOC
11:13 Fuel Weight: 18690 Lb
11:13 TOD
11:13 Fuel Weight: 18689 Lb
11:23 Wind:323º@030 Knots Heading: 201º Ground Speed: 326 Knots Altitude 11479 ft
11:32 Flaps:1 at 186 Knots
11:33 Flaps:2 at 179 Knots
11:35 Gear Down: 182 Knots
11:35 Flaps:3 at 181 Knots
11:38 Wind:210º@006 Knots Heading: 117º Ground Speed: 172 Knots Altitude 380 ft
11:38 TouchDown:Rate -201 ft/min Speed: 136 Knots
11:38 VATSIM:LEVC 031130Z 10007KT 050V160 9999 FEW035 28/17 Q1018 NOSIG
11:38 Land
11:38 Wind:210º@006 Knots
11:38 Heading: 115º
11:38 Flight Duration: 01:00
11:38 Landing Weight: 90285 Lbs
11:38 POS N39º 29´ 25´´ W000º 29´ 03´´
11:41 Parking brakes on
11:41 Block to Block Duration: 01:07
11:41 Final Fuel: 17466 Lbls
11:41 Spent Fuel: 5202 Lbls
11:41 Flight Length: 354 NM
11:41 TOD Land Length: 117 NM

Exportar CSV

Powered by Drupal - Modified by Danger4k